sensor_id;sensor_type;location;lat;lon;timestamp;pressure;altitude;pressure_sealevel;temperature;humidity
44992;BME280;56865;51.618;7.406;2023-02-14T00:01:37;102710.50;;;11.11;100.00
44992;BME280;56865;51.618;7.406;2023-02-14T00:04:08;102706.78;;;11.06;100.00
44992;BME280;56865;51.618;7.406;2023-02-14T00:06:38;102705.66;;;11.31;100.00
44992;BME280;56865;51.618;7.406;2023-02-14T00:09:17;102698.09;;;11.47;100.00
44992;BME280;56865;51.618;7.406;2023-02-14T00:11:47;102702.84;;;11.56;100.00
44992;BME280;56865;51.618;7.406;2023-02-14T00:14:20;102705.41;;;11.26;100.00
44992;BME280;56865;51.618;7.406;2023-02-14T00:17:02;102697.38;;;10.62;100.00
44992;BME280;56865;51.618;7.406;2023-02-14T00:19:34;102703.19;;;10.74;100.00
44992;BME280;56865;51.618;7.406;2023-02-14T00:22:04;102702.84;;;10.68;100.00
44992;BME280;56865;51.618;7.406;2023-02-14T00:24:39;102698.88;;;11.16;100.00
44992;BME280;56865;51.618;7.406;2023-02-14T00:27:09;102706.88;;;10.64;100.00
44992;BME280;56865;51.618;7.406;2023-02-14T00:29:39;102701.63;;;10.76;100.00
44992;BME280;56865;51.618;7.406;2023-02-14T00:32:10;102704.38;;;10.51;100.00
44992;BME280;56865;51.618;7.406;2023-02-14T00:34:40;102702.00;;;10.54;100.00
44992;BME280;56865;51.618;7.406;2023-02-14T00:37:11;102703.78;;;10.83;100.00
44992;BME280;56865;51.618;7.406;2023-02-14T00:39:56;102706.88;;;10.36;100.00
44992;BME280;56865;51.618;7.406;2023-02-14T00:42:26;102709.47;;;10.51;100.00
44992;BME280;56865;51.618;7.406;2023-02-14T00:44:56;102706.22;;;10.53;100.00
44992;BME280;56865;51.618;7.406;2023-02-14T00:47:26;102708.22;;;10.72;100.00
44992;BME280;56865;51.618;7.406;2023-02-14T00:49:56;102711.41;;;10.55;100.00
44992;BME280;56865;51.618;7.406;2023-02-14T00:52:28;102705.13;;;10.21;100.00
44992;BME280;56865;51.618;7.406;2023-02-14T00:55:01;102711.97;;;10.36;100.00
44992;BME280;56865;51.618;7.406;2023-02-14T00:57:34;102706.97;;;10.24;100.00
44992;BME280;56865;51.618;7.406;2023-02-14T01:00:05;102706.84;;;10.22;100.00
44992;BME280;56865;51.618;7.406;2023-02-14T01:02:35;102709.31;;;10.34;100.00
44992;BME280;56865;51.618;7.406;2023-02-14T01:05:05;102705.50;;;10.28;100.00
44992;BME280;56865;51.618;7.406;2023-02-14T01:07:34;102705.22;;;10.23;100.00
44992;BME280;56865;51.618;7.406;2023-02-14T01:10:07;102712.09;;;10.11;100.00
44992;BME280;56865;51.618;7.406;2023-02-14T01:12:37;102708.75;;;9.98;100.00
44992;BME280;56865;51.618;7.406;2023-02-14T01:15:08;102710.31;;;10.09;100.00
44992;BME280;56865;51.618;7.406;2023-02-14T01:17:38;102701.91;;;10.11;100.00
44992;BME280;56865;51.618;7.406;2023-02-14T01:20:11;102711.28;;;10.38;100.00
44992;BME280;56865;51.618;7.406;2023-02-14T01:22:43;102707.59;;;10.77;100.00
44992;BME280;56865;51.618;7.406;2023-02-14T01:25:15;102704.78;;;10.44;100.00
44992;BME280;56865;51.618;7.406;2023-02-14T01:27:59;102706.69;;;10.61;100.00
44992;BME280;56865;51.618;7.406;2023-02-14T01:30:29;102699.28;;;10.51;100.00
44992;BME280;56865;51.618;7.406;2023-02-14T01:32:59;102712.41;;;10.57;100.00
44992;BME280;56865;51.618;7.406;2023-02-14T01:35:29;102706.53;;;10.58;100.00
44992;BME280;56865;51.618;7.406;2023-02-14T01:37:58;102705.88;;;11.05;100.00
44992;BME280;56865;51.618;7.406;2023-02-14T01:40:31;102707.41;;;11.17;100.00
44992;BME280;56865;51.618;7.406;2023-02-14T01:43:01;102705.03;;;11.20;100.00
44992;BME280;56865;51.618;7.406;2023-02-14T01:45:31;102708.22;;;11.16;100.00
44992;BME280;56865;51.618;7.406;2023-02-14T01:48:01;102709.00;;;11.15;100.00
44992;BME280;56865;51.618;7.406;2023-02-14T01:50:32;102715.50;;;11.10;100.00
44992;BME280;56865;51.618;7.406;2023-02-14T01:53:03;102708.56;;;11.07;100.00
44992;BME280;56865;51.618;7.406;2023-02-14T01:55:38;102718.75;;;11.07;100.00
44992;BME280;56865;51.618;7.406;2023-02-14T01:58:12;102708.00;;;11.13;100.00
44992;BME280;56865;51.618;7.406;2023-02-14T02:00:43;102706.50;;;11.01;100.00
44992;BME280;56865;51.618;7.406;2023-02-14T02:03:41;102701.66;;;10.48;100.00
44992;BME280;56865;51.618;7.406;2023-02-14T02:06:13;102699.94;;;10.62;100.00
44992;BME280;56865;51.618;7.406;2023-02-14T02:08:47;102694.34;;;10.54;100.00
44992;BME280;56865;51.618;7.406;2023-02-14T02:11:21;102687.00;;;10.59;100.00
44992;BME280;56865;51.618;7.406;2023-02-14T02:13:51;102687.28;;;10.63;100.00
44992;BME280;56865;51.618;7.406;2023-02-14T02:16:23;102682.22;;;10.50;100.00
44992;BME280;56865;51.618;7.406;2023-02-14T02:18:57;102672.63;;;10.32;100.00
44992;BME280;56865;51.618;7.406;2023-02-14T02:21:48;102680.50;;;10.22;100.00
44992;BME280;56865;51.618;7.406;2023-02-14T02:24:25;102676.72;;;10.15;100.00
44992;BME280;56865;51.618;7.406;2023-02-14T02:30:06;102669.94;;;10.16;100.00
44992;BME280;56865;51.618;7.406;2023-02-14T02:33:02;102666.00;;;10.78;100.00
44992;BME280;56865;51.618;7.406;2023-02-14T02:35:40;102667.34;;;10.86;100.00
44992;BME280;56865;51.618;7.406;2023-02-14T02:38:29;102671.00;;;10.61;100.00
44992;BME280;56865;51.618;7.406;2023-02-14T02:41:07;102668.06;;;10.27;100.00
44992;BME280;56865;51.618;7.406;2023-02-14T02:43:46;102673.84;;;10.24;100.00
44992;BME280;56865;51.618;7.406;2023-02-14T02:46:21;102672.00;;;10.08;100.00
44992;BME280;56865;51.618;7.406;2023-02-14T02:49:07;102665.38;;;9.97;100.00
44992;BME280;56865;51.618;7.406;2023-02-14T02:52:06;102664.97;;;8.22;100.00
44992;BME280;56865;51.618;7.406;2023-02-14T02:54:51;102662.19;;;7.94;100.00
44992;BME280;56865;51.618;7.406;2023-02-14T02:57:24;102660.84;;;7.99;100.00
44992;BME280;56865;51.618;7.406;2023-02-14T02:59:52;102662.28;;;7.95;100.00
44992;BME280;56865;51.618;7.406;2023-02-14T03:02:24;102662.84;;;7.91;100.00
44992;BME280;56865;51.618;7.406;2023-02-14T03:04:55;102662.84;;;7.91;100.00
44992;BME280;56865;51.618;7.406;2023-02-14T03:07:33;102664.50;;;9.42;100.00
44992;BME280;56865;51.618;7.406;2023-02-14T03:10:06;102665.63;;;8.20;100.00
44992;BME280;56865;51.618;7.406;2023-02-14T03:12:41;102657.75;;;7.91;100.00
44992;BME280;56865;51.618;7.406;2023-02-14T03:15:15;102654.88;;;7.87;100.00
44992;BME280;56865;51.618;7.406;2023-02-14T03:17:52;102658.94;;;8.45;100.00
44992;BME280;56865;51.618;7.406;2023-02-14T03:20:29;102661.72;;;8.49;100.00
44992;BME280;56865;51.618;7.406;2023-02-14T03:23:06;102663.78;;;8.17;100.00
44992;BME280;56865;51.618;7.406;2023-02-14T03:25:39;102649.06;;;10.21;100.00
44992;BME280;56865;51.618;7.406;2023-02-14T03:28:11;102651.53;;;8.11;100.00
44992;BME280;56865;51.618;7.406;2023-02-14T03:30:44;102654.63;;;8.07;100.00
44992;BME280;56865;51.618;7.406;2023-02-14T03:33:17;102646.50;;;9.66;100.00
44992;BME280;56865;51.618;7.406;2023-02-14T03:35:53;102652.88;;;8.06;100.00
44992;BME280;56865;51.618;7.406;2023-02-14T03:38:31;102651.78;;;8.03;100.00
44992;BME280;56865;51.618;7.406;2023-02-14T03:41:02;102650.72;;;7.75;100.00
44992;BME280;56865;51.618;7.406;2023-02-14T03:43:34;102649.16;;;8.89;100.00
44992;BME280;56865;51.618;7.406;2023-02-14T03:46:07;102644.72;;;7.87;100.00
44992;BME280;56865;51.618;7.406;2023-02-14T03:48:40;102640.09;;;7.81;100.00
44992;BME280;56865;51.618;7.406;2023-02-14T03:51:11;102642.75;;;7.71;100.00
44992;BME280;56865;51.618;7.406;2023-02-14T03:53:45;102644.41;;;7.82;100.00
44992;BME280;56865;51.618;7.406;2023-02-14T03:56:17;102643.44;;;7.68;100.00
44992;BME280;56865;51.618;7.406;2023-02-14T03:58:52;102644.84;;;7.88;100.00
44992;BME280;56865;51.618;7.406;2023-02-14T04:01:24;102644.84;;;8.00;100.00
44992;BME280;56865;51.618;7.406;2023-02-14T04:03:56;102643.09;;;8.61;100.00
44992;BME280;56865;51.618;7.406;2023-02-14T04:06:28;102651.88;;;9.84;100.00
44992;BME280;56865;51.618;7.406;2023-02-14T04:09:01;102648.84;;;9.90;100.00
44992;BME280;56865;51.618;7.406;2023-02-14T04:11:31;102649.53;;;9.87;100.00
44992;BME280;56865;51.618;7.406;2023-02-14T04:14:01;102642.75;;;9.74;100.00
44992;BME280;56865;51.618;7.406;2023-02-14T04:16:32;102651.38;;;9.76;100.00
44992;BME280;56865;51.618;7.406;2023-02-14T04:19:22;102639.72;;;9.80;100.00
44992;BME280;56865;51.618;7.406;2023-02-14T04:21:49;102641.59;;;9.69;100.00
44992;BME280;56865;51.618;7.406;2023-02-14T04:24:22;102641.03;;;9.60;100.00
44992;BME280;56865;51.618;7.406;2023-02-14T04:26:51;102644.13;;;9.69;100.00
44992;BME280;56865;51.618;7.406;2023-02-14T04:29:36;102646.97;;;9.60;100.00
44992;BME280;56865;51.618;7.406;2023-02-14T04:32:07;102643.19;;;9.67;100.00
44992;BME280;56865;51.618;7.406;2023-02-14T04:34:37;102642.75;;;9.74;100.00
44992;BME280;56865;51.618;7.406;2023-02-14T04:37:07;102631.78;;;9.62;100.00
44992;BME280;56865;51.618;7.406;2023-02-14T04:39:39;102640.72;;;8.02;100.00
44992;BME280;56865;51.618;7.406;2023-02-14T04:42:09;102638.47;;;9.47;100.00
44992;BME280;56865;51.618;7.406;2023-02-14T04:44:39;102628.78;;;9.54;100.00
44992;BME280;56865;51.618;7.406;2023-02-14T04:47:08;102628.69;;;9.53;100.00
44992;BME280;56865;51.618;7.406;2023-02-14T04:49:38;102624.88;;;9.46;100.00
44992;BME280;56865;51.618;7.406;2023-02-14T04:52:08;102625.25;;;9.52;100.00
44992;BME280;56865;51.618;7.406;2023-02-14T04:54:41;102624.47;;;9.40;100.00
44992;BME280;56865;51.618;7.406;2023-02-14T04:57:10;102618.41;;;9.38;100.00
44992;BME280;56865;51.618;7.406;2023-02-14T04:59:40;102616.53;;;9.35;100.00
44992;BME280;56865;51.618;7.406;2023-02-14T05:02:10;102606.75;;;9.41;100.00
44992;BME280;56865;51.618;7.406;2023-02-14T05:04:39;102602.66;;;9.43;100.00
44992;BME280;56865;51.618;7.406;2023-02-14T05:07:09;102606.75;;;9.41;100.00
44992;BME280;56865;51.618;7.406;2023-02-14T05:09:41;102609.59;;;9.46;100.00
44992;BME280;56865;51.618;7.406;2023-02-14T05:12:11;102601.47;;;9.38;100.00
44992;BME280;56865;51.618;7.406;2023-02-14T05:14:41;102604.69;;;9.22;100.00
44992;BME280;56865;51.618;7.406;2023-02-14T05:17:10;102605.88;;;9.27;100.00
44992;BME280;56865;51.618;7.406;2023-02-14T05:19:40;102604.72;;;9.36;100.00
44992;BME280;56865;51.618;7.406;2023-02-14T05:22:10;102595.59;;;9.39;100.00
44992;BME280;56865;51.618;7.406;2023-02-14T05:24:42;102602.16;;;9.36;100.00
44992;BME280;56865;51.618;7.406;2023-02-14T05:27:11;102601.09;;;9.32;100.00
44992;BME280;56865;51.618;7.406;2023-02-14T05:29:41;102598.53;;;9.32;100.00
44992;BME280;56865;51.618;7.406;2023-02-14T05:32:11;102599.09;;;9.28;100.00
44992;BME280;56865;51.618;7.406;2023-02-14T05:34:40;102591.09;;;9.35;100.00
44992;BME280;56865;51.618;7.406;2023-02-14T05:37:10;102592.47;;;9.30;100.00
44992;BME280;56865;51.618;7.406;2023-02-14T05:39:42;102587.50;;;9.18;100.00
44992;BME280;56865;51.618;7.406;2023-02-14T05:42:14;102585.34;;;9.24;100.00
44992;BME280;56865;51.618;7.406;2023-02-14T05:44:44;102594.91;;;9.15;100.00
44992;BME280;56865;51.618;7.406;2023-02-14T05:47:16;102585.63;;;9.16;100.00
44992;BME280;56865;51.618;7.406;2023-02-14T05:49:46;102591.19;;;9.10;100.00
44992;BME280;56865;51.618;7.406;2023-02-14T05:52:16;102590.41;;;9.11;100.00
44992;BME280;56865;51.618;7.406;2023-02-14T05:54:48;102593.81;;;9.11;100.00
44992;BME280;56865;51.618;7.406;2023-02-14T05:57:20;102595.97;;;9.05;100.00
44992;BME280;56865;51.618;7.406;2023-02-14T05:59:54;102588.59;;;7.58;100.00
44992;BME280;56865;51.618;7.406;2023-02-14T06:02:23;102588.53;;;8.95;100.00
44992;BME280;56865;51.618;7.406;2023-02-14T06:04:53;102596.06;;;8.93;100.00
44992;BME280;56865;51.618;7.406;2023-02-14T06:07:23;102597.06;;;8.96;100.00
44992;BME280;56865;51.618;7.406;2023-02-14T06:09:55;102601.66;;;9.01;100.00
44992;BME280;56865;51.618;7.406;2023-02-14T06:12:25;102595.78;;;9.02;100.00
44992;BME280;56865;51.618;7.406;2023-02-14T06:14:55;102603.09;;;8.98;100.00
44992;BME280;56865;51.618;7.406;2023-02-14T06:17:25;102605.75;;;8.99;100.00
44992;BME280;56865;51.618;7.406;2023-02-14T06:19:54;102606.69;;;8.88;100.00
44992;BME280;56865;51.618;7.406;2023-02-14T06:22:24;102607.78;;;8.91;100.00
44992;BME280;56865;51.618;7.406;2023-02-14T06:25:00;102603.31;;;9.01;100.00
44992;BME280;56865;51.618;7.406;2023-02-14T06:27:31;102621.19;;;8.89;100.00
44992;BME280;56865;51.618;7.406;2023-02-14T06:30:01;102622.69;;;8.99;100.00
44992;BME280;56865;51.618;7.406;2023-02-14T06:32:31;102625.59;;;8.91;100.00
44992;BME280;56865;51.618;7.406;2023-02-14T06:35:00;102619.13;;;8.97;100.00
44992;BME280;56865;51.618;7.406;2023-02-14T06:37:30;102622.50;;;8.96;100.00
44992;BME280;56865;51.618;7.406;2023-02-14T06:40:02;102632.44;;;8.92;100.00
44992;BME280;56865;51.618;7.406;2023-02-14T06:42:32;102638.63;;;8.96;100.00
44992;BME280;56865;51.618;7.406;2023-02-14T06:45:02;102640.38;;;8.97;100.00
44992;BME280;56865;51.618;7.406;2023-02-14T06:47:33;102633.31;;;8.93;100.00
44992;BME280;56865;51.618;7.406;2023-02-14T06:50:05;102642.47;;;8.77;100.00
44992;BME280;56865;51.618;7.406;2023-02-14T06:52:37;102640.56;;;8.87;100.00
44992;BME280;56865;51.618;7.406;2023-02-14T06:55:10;102640.47;;;8.99;100.00
44992;BME280;56865;51.618;7.406;2023-02-14T06:57:40;102633.97;;;9.16;100.00
44992;BME280;56865;51.618;7.406;2023-02-14T07:00:10;102645.09;;;9.18;100.00
44992;BME280;56865;51.618;7.406;2023-02-14T07:02:42;102644.22;;;9.17;100.00
44992;BME280;56865;51.618;7.406;2023-02-14T07:05:12;102647.19;;;9.23;100.00
44992;BME280;56865;51.618;7.406;2023-02-14T07:07:44;102643.94;;;9.26;100.00
44992;BME280;56865;51.618;7.406;2023-02-14T07:10:17;102642.66;;;9.19;100.00
44992;BME280;56865;51.618;7.406;2023-02-14T07:12:46;102647.75;;;9.33;100.00
44992;BME280;56865;51.618;7.406;2023-02-14T07:15:16;102651.97;;;9.59;100.00
44992;BME280;56865;51.618;7.406;2023-02-14T07:17:46;102645.19;;;9.19;100.00
44992;BME280;56865;51.618;7.406;2023-02-14T07:20:15;102645.72;;;9.27;100.00
44992;BME280;56865;51.618;7.406;2023-02-14T07:22:45;102644.34;;;9.59;100.00
44992;BME280;56865;51.618;7.406;2023-02-14T07:25:17;102646.28;;;9.63;100.00
44992;BME280;56865;51.618;7.406;2023-02-14T07:27:47;102646.69;;;9.69;100.00
44992;BME280;56865;51.618;7.406;2023-02-14T07:30:17;102650.00;;;9.95;100.00
44992;BME280;56865;51.618;7.406;2023-02-14T07:32:47;102648.13;;;9.92;100.00
44992;BME280;56865;51.618;7.406;2023-02-14T07:35:17;102648.63;;;10.00;100.00
44992;BME280;56865;51.618;7.406;2023-02-14T07:37:47;102643.22;;;9.96;100.00
44992;BME280;56865;51.618;7.406;2023-02-14T07:40:20;102646.63;;;10.09;100.00
44992;BME280;56865;51.618;7.406;2023-02-14T07:42:53;102642.97;;;10.19;100.00
44992;BME280;56865;51.618;7.406;2023-02-14T07:45:24;102644.06;;;10.09;100.00
44992;BME280;56865;51.618;7.406;2023-02-14T07:47:54;102636.56;;;10.26;100.00
44992;BME280;56865;51.618;7.406;2023-02-14T07:50:28;102638.03;;;10.36;100.00
44992;BME280;56865;51.618;7.406;2023-02-14T07:52:58;102636.66;;;10.41;100.00
44992;BME280;56865;51.618;7.406;2023-02-14T07:55:30;102629.47;;;10.49;100.00
44992;BME280;56865;51.618;7.406;2023-02-14T07:58:00;102636.63;;;10.69;100.00
44992;BME280;56865;51.618;7.406;2023-02-14T08:00:30;102632.84;;;10.78;100.00
44992;BME280;56865;51.618;7.406;2023-02-14T08:02:59;102633.41;;;11.02;100.00
44992;BME280;56865;51.618;7.406;2023-02-14T08:05:29;102634.28;;;11.17;100.00
44992;BME280;56865;51.618;7.406;2023-02-14T08:07:59;102631.81;;;11.19;100.00
44992;BME280;56865;51.618;7.406;2023-02-14T08:10:31;102634.97;;;11.45;100.00
44992;BME280;56865;51.618;7.406;2023-02-14T08:13:01;102635.09;;;11.63;100.00
44992;BME280;56865;51.618;7.406;2023-02-14T08:15:31;102645.25;;;11.78;100.00
44992;BME280;56865;51.618;7.406;2023-02-14T08:18:14;102639.22;;;11.92;100.00
44992;BME280;56865;51.618;7.406;2023-02-14T08:20:44;102641.13;;;12.11;100.00
44992;BME280;56865;51.618;7.406;2023-02-14T08:23:15;102636.91;;;12.28;100.00
44992;BME280;56865;51.618;7.406;2023-02-14T08:25:48;102640.56;;;12.50;100.00
44992;BME280;56865;51.618;7.406;2023-02-14T08:28:18;102634.47;;;12.64;100.00
44992;BME280;56865;51.618;7.406;2023-02-14T08:30:48;102634.09;;;12.91;100.00
44992;BME280;56865;51.618;7.406;2023-02-14T08:33:21;102631.50;;;13.08;100.00
44992;BME280;56865;51.618;7.406;2023-02-14T08:35:51;102642.13;;;13.33;100.00
44992;BME280;56865;51.618;7.406;2023-02-14T08:38:21;102633.66;;;13.53;100.00
44992;BME280;56865;51.618;7.406;2023-02-14T08:41:00;102630.22;;;13.70;100.00
44992;BME280;56865;51.618;7.406;2023-02-14T08:43:34;102638.59;;;13.86;100.00
44992;BME280;56865;51.618;7.406;2023-02-14T08:46:04;102633.75;;;13.92;100.00
44992;BME280;56865;51.618;7.406;2023-02-14T08:48:35;102636.19;;;14.08;100.00
44992;BME280;56865;51.618;7.406;2023-02-14T08:51:08;102636.06;;;14.25;100.00
44992;BME280;56865;51.618;7.406;2023-02-14T08:53:41;102640.72;;;14.53;100.00
44992;BME280;56865;51.618;7.406;2023-02-14T08:56:25;102643.16;;;14.70;100.00
44992;BME280;56865;51.618;7.406;2023-02-14T08:59:14;102635.34;;;14.88;100.00
44992;BME280;56865;51.618;7.406;2023-02-14T09:01:49;102632.41;;;15.00;100.00
44992;BME280;56865;51.618;7.406;2023-02-14T09:04:24;102629.72;;;15.18;100.00
44992;BME280;56865;51.618;7.406;2023-02-14T09:06:59;102628.56;;;15.32;100.00
44992;BME280;56865;51.618;7.406;2023-02-14T09:09:40;102627.06;;;15.37;100.00
44992;BME280;56865;51.618;7.406;2023-02-14T09:12:36;102632.22;;;15.60;100.00
44992;BME280;56865;51.618;7.406;2023-02-14T09:15:11;102630.63;;;15.85;100.00
44992;BME280;56865;51.618;7.406;2023-02-14T09:17:44;102626.44;;;15.88;100.00
44992;BME280;56865;51.618;7.406;2023-02-14T09:20:42;102631.53;;;16.11;100.00
44992;BME280;56865;51.618;7.406;2023-02-14T09:23:44;102622.47;;;16.21;100.00
44992;BME280;56865;51.618;7.406;2023-02-14T09:26:33;102619.63;;;16.13;100.00
44992;BME280;56865;51.618;7.406;2023-02-14T09:29:32;102618.44;;;16.53;100.00
44992;BME280;56865;51.618;7.406;2023-02-14T09:32:43;102614.38;;;16.60;100.00
44992;BME280;56865;51.618;7.406;2023-02-14T11:18:14;102571.38;;;23.12;91.12
44992;BME280;56865;51.618;7.406;2023-02-14T11:20:47;102563.53;;;23.09;91.41
44992;BME280;56865;51.618;7.406;2023-02-14T11:23:31;102556.69;;;23.17;89.95
44992;BME280;56865;51.618;7.406;2023-02-14T11:26:08;102559.97;;;22.93;89.60
44992;BME280;56865;51.618;7.406;2023-02-14T11:28:47;102548.81;;;23.10;92.31
44992;BME280;56865;51.618;7.406;2023-02-14T11:31:29;102546.13;;;22.97;89.38
44992;BME280;56865;51.618;7.406;2023-02-14T11:34:02;102546.34;;;23.28;91.23
44992;BME280;56865;51.618;7.406;2023-02-14T11:36:37;102535.00;;;23.20;86.20
44992;BME280;56865;51.618;7.406;2023-02-14T11:39:16;102537.72;;;23.56;83.95
44992;BME280;56865;51.618;7.406;2023-02-14T11:41:49;102529.09;;;23.64;84.90
44992;BME280;56865;51.618;7.406;2023-02-14T11:44:22;102519.59;;;23.90;89.09
44992;BME280;56865;51.618;7.406;2023-02-14T11:46:53;102519.59;;;23.86;82.76
44992;BME280;56865;51.618;7.406;2023-02-14T11:49:28;102516.16;;;23.98;85.83
44992;BME280;56865;51.618;7.406;2023-02-14T11:51:59;102521.03;;;23.07;79.49
44992;BME280;56865;51.618;7.406;2023-02-14T11:54:31;102513.38;;;23.38;84.00
44992;BME280;56865;51.618;7.406;2023-02-14T11:57:04;102509.06;;;23.42;80.19
44992;BME280;56865;51.618;7.406;2023-02-14T11:59:37;102500.47;;;23.83;82.75
44992;BME280;56865;51.618;7.406;2023-02-14T12:02:12;102504.00;;;23.97;79.65
44992;BME280;56865;51.618;7.406;2023-02-14T12:04:45;102494.44;;;23.89;79.26
44992;BME280;56865;51.618;7.406;2023-02-14T12:07:16;102494.31;;;23.36;83.59
44992;BME280;56865;51.618;7.406;2023-02-14T12:09:47;102490.06;;;23.91;82.13
44992;BME280;56865;51.618;7.406;2023-02-14T12:12:33;102492.72;;;24.12;77.83
44992;BME280;56865;51.618;7.406;2023-02-14T12:15:11;102483.13;;;23.85;79.75
44992;BME280;56865;51.618;7.406;2023-02-14T12:17:50;102482.25;;;23.77;81.33
44992;BME280;56865;51.618;7.406;2023-02-14T12:20:30;102480.53;;;24.24;80.50
44992;BME280;56865;51.618;7.406;2023-02-14T12:23:03;102480.56;;;23.96;79.47
44992;BME280;56865;51.618;7.406;2023-02-14T12:25:38;102472.69;;;22.09;82.72
44992;BME280;56865;51.618;7.406;2023-02-14T12:28:10;102468.38;;;22.11;85.29
44992;BME280;56865;51.618;7.406;2023-02-14T12:30:41;102469.50;;;21.52;78.96
44992;BME280;56865;51.618;7.406;2023-02-14T12:33:13;102464.06;;;22.13;81.99
44992;BME280;56865;51.618;7.406;2023-02-14T12:35:49;102457.66;;;22.91;85.90
44992;BME280;56865;51.618;7.406;2023-02-14T12:38:24;102462.63;;;22.48;85.27
44992;BME280;56865;51.618;7.406;2023-02-14T12:40:59;102449.50;;;22.34;85.22
44992;BME280;56865;51.618;7.406;2023-02-14T12:43:45;102451.31;;;22.41;85.49
44992;BME280;56865;51.618;7.406;2023-02-14T12:46:19;102454.91;;;22.59;82.48
44992;BME280;56865;51.618;7.406;2023-02-14T12:48:55;102449.56;;;22.38;85.07
44992;BME280;56865;51.618;7.406;2023-02-14T12:51:31;102445.03;;;22.14;86.46
44992;BME280;56865;51.618;7.406;2023-02-14T12:54:12;102435.19;;;23.09;82.50
44992;BME280;56865;51.618;7.406;2023-02-14T12:56:53;102437.06;;;23.54;78.52
44992;BME280;56865;51.618;7.406;2023-02-14T12:59:31;102428.69;;;22.34;86.60
44992;BME280;56865;51.618;7.406;2023-02-14T13:02:31;102434.06;;;22.48;83.63
44992;BME280;56865;51.618;7.406;2023-02-14T13:05:15;102429.25;;;23.47;82.24
44992;BME280;56865;51.618;7.406;2023-02-14T13:07:58;102429.75;;;22.56;83.90
44992;BME280;56865;51.618;7.406;2023-02-14T13:10:34;102420.97;;;22.37;90.79
44992;BME280;56865;51.618;7.406;2023-02-14T13:13:11;102419.91;;;22.12;85.72
44992;BME280;56865;51.618;7.406;2023-02-14T13:15:45;102413.16;;;22.35;88.93
44992;BME280;56865;51.618;7.406;2023-02-14T13:18:23;102410.16;;;24.39;90.25
44992;BME280;56865;51.618;7.406;2023-02-14T13:20:57;102411.03;;;23.44;87.39
44992;BME280;56865;51.618;7.406;2023-02-14T13:23:32;102400.56;;;23.16;90.67
44992;BME280;56865;51.618;7.406;2023-02-14T13:26:05;102407.44;;;23.09;86.29
44992;BME280;56865;51.618;7.406;2023-02-14T13:28:36;102406.50;;;24.97;83.60
44992;BME280;56865;51.618;7.406;2023-02-14T13:31:08;102399.75;;;23.42;86.26
44992;BME280;56865;51.618;7.406;2023-02-14T13:33:41;102398.84;;;23.19;86.91
44992;BME280;56865;51.618;7.406;2023-02-14T13:36:13;102398.88;;;23.43;84.59
44992;BME280;56865;51.618;7.406;2023-02-14T13:38:47;102390.19;;;23.28;87.99
44992;BME280;56865;51.618;7.406;2023-02-14T13:41:17;102389.38;;;24.10;86.82
44992;BME280;56865;51.618;7.406;2023-02-14T13:43:51;102393.66;;;23.38;83.49
44992;BME280;56865;51.618;7.406;2023-02-14T13:49:15;102381.53;;;23.43;85.63
44992;BME280;56865;51.618;7.406;2023-02-14T13:51:50;102376.34;;;23.46;86.97
44992;BME280;56865;51.618;7.406;2023-02-14T13:54:29;102379.38;;;25.22;82.68
44992;BME280;56865;51.618;7.406;2023-02-14T13:57:01;102383.06;;;24.90;81.91
44992;BME280;56865;51.618;7.406;2023-02-14T13:59:32;102372.03;;;24.09;87.40
44992;BME280;56865;51.618;7.406;2023-02-14T14:04:48;102366.66;;;24.71;75.05
44992;BME280;56865;51.618;7.406;2023-02-14T14:07:19;102359.72;;;24.46;80.13
44992;BME280;56865;51.618;7.406;2023-02-14T14:09:57;102359.88;;;23.74;79.31
44992;BME280;56865;51.618;7.406;2023-02-14T14:12:37;102346.84;;;23.57;83.95
44992;BME280;56865;51.618;7.406;2023-02-14T14:15:09;102356.22;;;22.82;80.36
44992;BME280;56865;51.618;7.406;2023-02-14T14:17:39;102343.16;;;22.66;81.93
44992;BME280;56865;51.618;7.406;2023-02-14T14:23:00;102344.78;;;22.38;82.53
44992;BME280;56865;51.618;7.406;2023-02-14T14:25:36;102347.91;;;21.87;80.22
44992;BME280;56865;51.618;7.406;2023-02-14T14:28:08;102347.50;;;21.42;83.40
44992;BME280;56865;51.618;7.406;2023-02-14T14:30:38;102344.78;;;21.30;86.97
44992;BME280;56865;51.618;7.406;2023-02-14T14:33:12;102342.06;;;21.18;87.91
44992;BME280;56865;51.618;7.406;2023-02-14T14:35:50;102340.16;;;21.00;85.90
44992;BME280;56865;51.618;7.406;2023-02-14T14:38:20;102335.72;;;20.91;87.66
44992;BME280;56865;51.618;7.406;2023-02-14T14:40:56;102339.03;;;20.77;89.27
44992;BME280;56865;51.618;7.406;2023-02-14T14:43:29;102334.56;;;20.67;88.33
44992;BME280;56865;51.618;7.406;2023-02-14T14:46:00;102326.50;;;20.44;89.92
44992;BME280;56865;51.618;7.406;2023-02-14T14:49:12;102331.84;;;20.58;89.14
44992;BME280;56865;51.618;7.406;2023-02-14T14:52:04;102319.59;;;20.46;93.70
44992;BME280;56865;51.618;7.406;2023-02-14T14:54:58;102319.84;;;20.66;96.07
44992;BME280;56865;51.618;7.406;2023-02-14T14:57:40;102311.91;;;20.52;93.47
44992;BME280;56865;51.618;7.406;2023-02-14T15:00:35;102314.34;;;20.40;89.45
44992;BME280;56865;51.618;7.406;2023-02-14T15:03:13;102309.97;;;20.34;96.34
44992;BME280;56865;51.618;7.406;2023-02-14T15:09:11;102296.16;;;18.38;98.55
44992;BME280;56865;51.618;7.406;2023-02-14T15:11:48;102293.38;;;18.68;100.00
44992;BME280;56865;51.618;7.406;2023-02-14T15:14:38;102296.66;;;18.19;100.00
44992;BME280;56865;51.618;7.406;2023-02-14T15:17:18;102305.00;;;19.88;93.81
44992;BME280;56865;51.618;7.406;2023-02-14T15:19:57;102302.66;;;19.50;98.68